Cooks, MI (49817)

08:26 AM EDT del 02 Ottobre 2014 (GMT -0400)
Garden Corners, Michigan | Change Station
CLOSE
Current Station
Stazione meteo personale
Location: Garden Corners, MI
Altitudine: 587 ft
Stazioni meteo nelle vicinanze

Alt. 587 ft 45.90 °N, 86.55 °W | Updated 5 seconds ago

Coperto
Coperto
56.3 °F
Sembra 56.3 °F
N
1.0
Vento Variabile Vento da ESE
Gusts 9.0 mph

Oggi
Massima -- | Minima -- °F
--% Possibilità di precip.
Ieri
Massima -- | Minima -- °F
Precip. -- in
7:45 AM 7:24 PM
Primo quarto, 58% visible
Pressione 29.92 in
Visibilità 5.0 miglia
Nuvole Coperto 400 ft
Punto di rugiada 56 °F
Umidità 99%
Piovosità 0.35 in
Spessore del manto nevoso Non disponibile.
Raggi UV 0 fuori da 12
Polline .40 fuori da 12
PM2.5 Buono
Flu Activity Non disponibile.
METAR KISQ 021214Z AUTO 14006KT 5SM -RA OVC004 13/13 A2992 RMK AO2 P0001 T01320130

More Conditions Fewer Conditions

Pressione 29.92 in
Visibilità 5.0 miglia
Nuvole Coperto 400 ft
Punto di rugiada 56 °F
Umidità 99%
Piovosità 0.35 in
Spessore del manto nevoso Non disponibile.
Raggi UV 0 fuori da 12
Polline .40 fuori da 12
PM2.5 Buono
Flu Activity Non disponibile.
METAR KISQ 021214Z AUTO 14006KT 5SM -RA OVC004 13/13 A2992 RMK AO2 P0001 T01320130

More Conditions Fewer Conditions

10-Day Weather Forecast

Almanac

Astronomia

Oct. 02, 2014 Alba Tramonto
Ora attuale 07:45 EDT 19:24 EDT
Crepuscolo civile 07:16 EDT 19:53 EDT
Crepuscolo nautico 06:41 EDT 20:28 EDT
Crepuscolo astronomico 06:06 EDT 21:03 EDT
Luna 15:46 EDT 00:44 EDT
Estensione della luce visibile 12h 37m
Lunghezza del giorno
11h 38m
Tomorrow will be 3m 13s shorter.
Primo quarto, 58% of the Moon is Illuminated
Oggi
Primo quarto
Ott 8
Luna piena
Ott 15
Ultimo quarto
Ott 23
Nuovo
Ott 30
Primo quarto

Gli estremi di oggi

State Highs State Lows

Community

WunderPhotos

Upload Photos

1,758,223 foto caricate!

WunderBlogs® & News

Nearby

Qualità dell'aria

  Qualità dell'aria Indice AQ Inquinante
Ieri Buono
PM2.5
Attuale Buono
PM2.5
Giovedì Buono
OZONE
Giovedì Buono
PM2.5
Venerdì Buono
OZONE
Venerdì Buono
PM2.5
Sabato Buono
OZONE
Sabato Buono
PM2.5

Profondità neve

Stazione Profondità Altitudine
Non sono state evidenziate nuove nevicate

Attività sismica

Città  Distanza Mag. Data & Ora
Non sono state riportate attività sismiche nelle vicinanze.
Minimo Magnitudo Mostrato è 2.5.

Temperature delle acque costiere

Località Temperatura
Menominee, MI 61.0 °F
Port Inland, MI 60.1 °F

Stazioni meteo nelle vicinanze